Time;durP1;ratioP1;P1;durP2;ratioP2;P2;SDS_P1;SDS_P2;PMS_P1;PMS_P2;Temp;Humidity;BMP_temperature;BMP_pressure;BME280_temperature;BME280_humidity;BME280_pressure;Samples;Min_cycle;Max_cycle;Signal;HPM_P1;HPM_P2
2023/04/02 00:01:19;;;;;;;5.38;2.47;;;;;;;-148.88;100.00;76297.25;5058246;28;20111;-85
2023/04/02 00:03:44;;;;;;;6.07;2.90;;;;;;;-148.88;100.00;76317.56;5078369;28;20066;-85
2023/04/02 00:06:28;;;;;;;4.60;2.05;;;;;;;-148.88;100.00;76362.25;5079187;28;20028;-85
2023/04/02 00:08:57;;;;;;;4.85;1.92;;;;;;;-148.88;100.00;76350.06;5080030;28;20024;-85
2023/04/02 00:11:36;;;;;;;6.38;2.42;;;;;;;-148.88;100.00;76346.00;5076839;28;20031;-85
2023/04/02 00:14:03;;;;;;;6.72;2.63;;;;;;;-148.88;100.00;76382.56;5074759;28;20517;-85
2023/04/02 00:16:30;;;;;;;5.03;2.53;;;;;;;-148.88;100.00;76374.44;5076669;28;20031;-85
2023/04/02 00:19:02;;;;;;;6.82;2.40;;;;;;;-148.88;100.00;76390.69;5077148;28;20020;-85
2023/04/02 00:21:34;;;;;;;4.60;2.17;;;;;;;-148.88;100.00;76388.66;5076314;28;20021;-85
2023/04/02 00:24:05;;;;;;;5.25;2.42;;;;;;;-148.88;100.00;76398.81;5077837;28;20032;-86
2023/04/02 00:26:38;;;;;;;7.05;3.05;;;;;;;-148.88;100.00;76451.66;5077606;28;20079;-86
2023/04/02 00:29:05;;;;;;;4.13;2.72;;;;;;;-148.88;100.00;76455.72;5076965;28;20020;-85
2023/04/02 00:31:31;;;;;;;4.93;2.58;;;;;;;-148.88;100.00;76467.91;5077032;28;20036;-86
2023/04/02 00:33:59;;;;;;;5.93;2.65;;;;;;;-148.88;100.00;76455.72;5076277;28;20035;-85
2023/04/02 00:36:28;;;;;;;6.00;3.20;;;;;;;-148.88;100.00;76443.53;5076062;28;20020;-85
2023/04/02 00:38:57;;;;;;;9.57;3.30;;;;;;;-148.88;100.00;76453.69;5077472;28;20028;-84
2023/04/02 00:41:26;;;;;;;7.13;3.05;;;;;;;-148.88;100.00;76459.78;5057690;28;20143;-84
2023/04/02 00:43:52;;;;;;;7.38;3.28;;;;;;;-148.88;100.00;76467.91;5074415;28;20474;-85
2023/04/02 00:46:22;;;;;;;6.70;3.40;;;;;;;-148.88;100.00;76465.88;5075077;28;20029;-86
2023/04/02 00:48:54;;;;;;;5.05;2.95;;;;;;;-148.88;100.00;76443.53;5075914;28;20031;-85
2023/04/02 00:51:26;;;;;;;7.57;3.53;;;;;;;-148.88;100.00;76447.59;5078506;28;20056;-85
2023/04/02 00:53:54;;;;;;;6.70;2.95;;;;;;;-148.88;100.00;76467.91;5078350;28;20500;-85
2023/04/02 00:56:27;;;;;;;7.22;3.38;;;;;;;-148.88;100.00;76451.66;5075269;28;20090;-85
2023/04/02 00:58:55;;;;;;;6.18;3.03;;;;;;;-148.88;100.00;76476.03;5074519;28;20119;-86
2023/04/02 01:01:27;;;;;;;5.40;3.10;;;;;;;-148.88;100.00;76459.78;5077266;28;20028;-86
2023/04/02 01:03:57;;;;;;;9.82;3.67;;;;;;;-148.88;100.00;76488.22;5075662;28;20035;-86
2023/04/02 01:06:28;;;;;;;6.30;2.90;;;;;;;-148.88;100.00;76492.28;5056794;28;20020;-85
2023/04/02 01:09:21;;;;;;;7.53;3.10;;;;;;;-148.88;100.00;76476.03;5075429;28;20052;-86
2023/04/02 01:12:11;;;;;;;5.80;2.90;;;;;;;-148.88;100.00;76492.28;5073739;28;20224;-85
2023/04/02 01:15:02;;;;;;;6.07;3.65;;;;;;;-148.88;100.00;76510.56;5074210;28;20605;-86
2023/04/02 01:17:47;;;;;;;5.60;3.00;;;;;;;-148.88;100.00;76506.50;5074457;28;20467;-86
2023/04/02 01:20:46;;;;;;;7.47;3.33;;;;;;;-148.88;100.00;76532.91;5074531;28;20035;-86
2023/04/02 01:23:21;;;;;;;6.90;3.65;;;;;;;-148.88;100.00;76644.66;5073156;28;20064;-85
2023/04/02 01:25:57;;;;;;;7.60;3.67;;;;;;;-148.88;100.00;76689.34;5075814;28;20028;-86
2023/04/02 01:28:58;;;;;;;9.63;3.70;;;;;;;-148.88;100.00;76685.28;5076503;28;20068;-86
2023/04/02 01:31:26;;;;;;;8.98;3.65;;;;;;;-148.88;100.00;76691.38;5076654;28;20029;-85
2023/04/02 01:33:52;;;;;;;5.68;3.30;;;;;;;-148.88;100.00;76746.22;5077390;28;20052;-85
2023/04/02 01:36:40;;;;;;;9.25;3.80;;;;;;;-148.88;100.00;76695.44;5077317;28;20070;-85
2023/04/02 01:39:25;;;;;;;9.98;3.63;;;;;;;-148.88;100.00;76719.81;5075348;28;20025;-85
2023/04/02 01:42:12;;;;;;;7.57;3.67;;;;;;;-148.88;100.00;76727.94;5076462;28;20048;-88
2023/04/02 01:44:45;;;;;;;9.80;3.67;;;;;;;-148.88;100.00;76732.00;5074745;28;20379;-86
2023/04/02 01:47:13;;;;;;;8.38;3.25;;;;;;;-148.88;100.00;76707.63;5075218;28;20028;-87
2023/04/02 01:49:39;;;;;;;11.80;3.55;;;;;;;-148.88;100.00;76719.81;5078271;28;20024;-85
2023/04/02 01:52:05;;;;;;;7.95;3.38;;;;;;;-148.88;100.00;76738.09;5080347;28;20028;-86
2023/04/02 01:54:30;;;;;;;9.30;3.33;;;;;;;-148.88;100.00;76744.19;5079533;28;20420;-85
2023/04/02 01:56:56;;;;;;;8.20;3.72;;;;;;;-148.88;100.00;76736.06;5079679;28;20028;-85
2023/04/02 01:59:22;;;;;;;9.38;3.65;;;;;;;-148.88;100.00;76732.00;5075918;28;20016;-85
2023/04/02 02:01:56;;;;;;;10.88;3.92;;;;;;;-148.88;100.00;76711.69;5060509;28;20031;-86
2023/04/02 02:04:21;;;;;;;8.65;3.72;;;;;;;-148.88;100.00;76762.50;5078770;28;20025;-85
2023/04/02 02:06:47;;;;;;;9.13;3.83;;;;;;;-148.88;100.00;76792.97;5077106;28;20111;-85
2023/04/02 02:09:23;;;;;;;11.38;4.13;;;;;;;-148.88;100.00;76797.03;5077526;28;20025;-85
2023/04/02 02:11:50;;;;;;;11.45;3.88;;;;;;;-148.88;100.00;76829.53;5079393;28;20024;-85
2023/04/02 02:14:19;;;;;;;8.02;4.03;;;;;;;-148.88;100.00;76809.22;5079310;28;20104;-86
2023/04/02 02:16:46;;;;;;;10.20;3.58;;;;;;;-148.88;100.00;76837.66;5078812;28;20379;-86
2023/04/02 02:19:44;;;;;;;7.35;3.20;;;;;;;-148.88;100.00;76831.56;5059809;28;20107;-86
2023/04/02 02:22:36;;;;;;;6.60;2.95;;;;;;;-148.88;100.00;76776.72;5076834;28;20063;-85
2023/04/02 02:25:05;;;;;;;9.88;2.67;;;;;;;-148.88;100.00;76776.72;5078060;28;20032;-85
2023/04/02 02:28:12;;;;;;;5.93;2.80;;;;;;;-148.88;100.00;76744.19;5078068;28;20027;-86
2023/04/02 02:30:43;;;;;;;7.90;3.28;;;;;;;-148.88;100.00;76709.66;5076959;28;20032;-85
2023/04/02 02:33:36;;;;;;;8.70;3.45;;;;;;;-148.88;100.00;76756.41;5057891;28;20024;-84
2023/04/02 02:36:06;;;;;;;8.85;3.42;;;;;;;-148.88;100.00;76821.41;5077823;28;20032;-85
2023/04/02 02:38:43;;;;;;;6.20;3.33;;;;;;;-148.88;100.00;76788.91;5080047;28;21366;-86
2023/04/02 02:41:16;;;;;;;7.65;3.15;;;;;;;-148.88;100.00;76797.03;5078446;28;20027;-85
2023/04/02 02:43:52;;;;;;;6.53;3.47;;;;;;;-148.88;100.00;76817.34;5079506;28;20099;-85
2023/04/02 02:46:22;;;;;;;10.88;2.90;;;;;;;-148.88;100.00;76809.22;5079052;28;20024;-86
2023/04/02 02:48:48;;;;;;;8.57;2.97;;;;;;;-148.88;100.00;76819.38;5060868;28;20115;-86
2023/04/02 02:51:24;;;;;;;7.07;2.60;;;;;;;-148.88;100.00;76819.38;5060177;28;20043;-85
2023/04/02 02:53:53;;;;;;;5.10;2.17;;;;;;;-148.88;100.00;76815.31;5078035;28;20021;-85
2023/04/02 02:56:22;;;;;;;5.03;2.67;;;;;;;-148.88;100.00;76827.50;5078191;28;20035;-86
2023/04/02 02:58:50;;;;;;;7.43;3.03;;;;;;;-148.88;100.00;76849.84;5079607;28;20498;-85
2023/04/02 03:01:17;;;;;;;9.27;2.78;;;;;;;-148.88;100.00;76849.84;5061008;28;20036;-85
2023/04/02 03:03:44;;;;;;;6.13;2.30;;;;;;;-148.88;100.00;76845.78;5079470;28;20042;-86
2023/04/02 03:06:28;;;;;;;7.65;2.83;;;;;;;-148.88;100.00;76847.81;5127415;22;20048;-86
2023/04/02 03:09:21;;;;;;;4.32;2.05;;;;;;;-148.88;100.00;76855.94;5064345;28;20178;-84
2023/04/02 03:12:13;;;;;;;7.65;2.38;;;;;;;-148.88;100.00;76876.25;5059614;28;20051;-83
2023/04/02 03:14:46;;;;;;;6.72;2.33;;;;;;;-148.88;100.00;76845.78;5065303;22;20573;-77
2023/04/02 03:17:31;;;;;;;7.40;2.67;;;;;;;-148.88;100.00;76851.88;5056387;28;20064;-77
2023/04/02 03:20:14;;;;;;;5.30;2.55;;;;;;;-148.88;100.00;76866.09;5074685;28;20078;-77
2023/04/02 03:22:51;;;;;;;5.68;2.15;;;;;;;-148.88;100.00;76862.03;5075188;28;20027;-77
2023/04/02 03:25:42;;;;;;;8.57;2.50;;;;;;;-148.88;100.00;76882.34;5074415;28;20036;-77
2023/04/02 03:28:14;;;;;;;5.80;2.40;;;;;;;-148.88;100.00;76906.75;5075604;28;20362;-77
2023/04/02 03:31:09;;;;;;;4.40;2.17;;;;;;;-148.88;100.00;76923.00;5056586;28;20024;-77
2023/04/02 03:33:42;;;;;;;8.70;2.40;;;;;;;-148.88;100.00;76939.25;5074026;28;20044;-77
2023/04/02 03:36:21;;;;;;;5.40;1.65;;;;;;;-148.88;100.00;76931.13;5074649;28;20085;-77
2023/04/02 03:39:11;;;;;;;5.43;2.10;;;;;;;-148.88;100.00;76935.19;5074374;28;20025;-77
2023/04/02 03:41:46;;;;;;;4.30;1.88;;;;;;;-148.88;100.00;76947.38;5074073;28;20029;-77
2023/04/02 03:44:34;;;;;;;10.55;2.35;;;;;;;-148.88;100.00;76882.34;5073985;28;20025;-77
2023/04/02 03:47:11;;;;;;;5.82;2.45;;;;;;;-148.88;100.00;76910.81;5074002;28;20082;-77
2023/04/02 03:49:46;;;;;;;6.50;1.98;;;;;;;-148.88;100.00;76979.88;5074176;28;20055;-77
2023/04/02 03:52:26;;;;;;;6.15;1.92;;;;;;;-148.88;100.00;77024.59;5074425;28;20031;-77
2023/04/02 03:54:57;;;;;;;6.85;1.92;;;;;;;-148.88;100.00;76998.16;5074133;28;20016;-77
2023/04/02 03:57:42;;;;;;;7.50;1.90;;;;;;;-148.88;100.00;77008.34;5072454;28;20035;-77
2023/04/02 04:00:18;;;;;;;6.85;1.75;;;;;;;-148.88;100.00;76973.78;5074180;28;20027;-77
2023/04/02 04:02:51;;;;;;;7.68;2.00;;;;;;;-148.88;100.00;77036.78;5074162;28;20070;-77
2023/04/02 04:05:27;;;;;;;3.45;1.95;;;;;;;-148.88;100.00;77053.03;5074310;28;20066;-77
2023/04/02 04:07:59;;;;;;;5.07;1.90;;;;;;;-148.88;100.00;77051.00;5074044;28;20069;-77
2023/04/02 04:10:26;;;;;;;7.30;2.03;;;;;;;-148.88;100.00;77028.66;5073949;28;20029;-77
2023/04/02 04:13:00;;;;;;;6.72;1.95;;;;;;;-148.88;100.00;77055.06;5073466;28;20054;-77
2023/04/02 04:15:36;;;;;;;4.28;1.63;;;;;;;-148.88;100.00;77048.97;5072380;28;20028;-77
2023/04/02 04:18:39;;;;;;;5.95;1.90;;;;;;;-148.88;100.00;77063.19;5072353;28;20025;-77
2023/04/02 04:21:29;;;;;;;7.60;1.80;;;;;;;-148.88;100.00;77069.28;5073853;28;20032;-77
2023/04/02 04:24:02;;;;;;;6.50;1.90;;;;;;;-148.88;100.00;77101.78;5055871;28;20078;-77
2023/04/02 04:26:48;;;;;;;5.78;2.10;;;;;;;-148.88;100.00;77073.34;5072203;28;20112;-77
2023/04/02 04:29:30;;;;;;;3.47;1.52;;;;;;;-148.88;100.00;77061.16;5073273;28;20479;-77
2023/04/02 04:32:09;;;;;;;4.43;2.00;;;;;;;-148.88;100.00;77075.38;5073279;28;20488;-77
2023/04/02 04:34:45;;;;;;;5.63;1.70;;;;;;;-148.88;100.00;77046.94;5073217;28;20427;-77
2023/04/02 04:37:24;;;;;;;5.05;1.40;;;;;;;-148.88;100.00;77053.03;5071859;28;20021;-77
2023/04/02 04:39:56;;;;;;;6.55;1.58;;;;;;;-148.88;100.00;77016.47;5055076;28;20024;-77
2023/04/02 04:42:26;;;;;;;7.28;1.92;;;;;;;-148.88;100.00;77036.78;5071790;28;20032;-77
2023/04/02 04:45:01;;;;;;;7.97;2.05;;;;;;;-148.88;100.00;77053.03;5071875;28;20031;-77
2023/04/02 04:47:38;;;;;;;5.25;1.75;;;;;;;-148.88;100.00;77055.06;5073197;28;20031;-77
2023/04/02 04:50:23;;;;;;;4.22;1.80;;;;;;;-148.88;100.00;77053.03;5073319;28;20074;-77
2023/04/02 04:52:48;;;;;;;9.05;2.28;;;;;;;-148.88;100.00;77063.19;5072253;28;20021;-77
2023/04/02 04:55:25;;;;;;;4.75;1.48;;;;;;;-148.88;100.00;77087.56;5071863;28;20036;-77
2023/04/02 04:57:56;;;;;;;5.25;1.50;;;;;;;-148.88;100.00;77073.34;5073136;28;20055;-77
2023/04/02 05:00:31;;;;;;;4.80;1.40;;;;;;;-148.88;100.00;77042.88;5073127;28;20056;-77
2023/04/02 05:03:05;;;;;;;4.78;1.45;;;;;;;-148.88;100.00;77118.06;5071472;28;20025;-77
2023/04/02 05:05:36;;;;;;;4.90;1.65;;;;;;;-148.88;100.00;77142.44;5072738;28;20398;-77
2023/04/02 05:08:13;;;;;;;6.00;1.63;;;;;;;-148.88;100.00;77172.91;5073059;28;20439;-77
2023/04/02 05:10:49;;;;;;;3.78;1.33;;;;;;;-148.88;100.00;77142.44;5073075;28;20024;-77
2023/04/02 05:13:24;;;;;;;9.43;1.52;;;;;;;-148.88;100.00;77154.63;5073785;28;20544;-76
2023/04/02 05:16:08;;;;;;;3.50;1.40;;;;;;;-148.88;100.00;77166.81;5073173;28;20032;-77
2023/04/02 05:18:38;;;;;;;;;;;;;;;-148.88;100.00;77201.34;5073844;28;20017;-79
2023/04/02 05:21:19;;;;;;;4.32;1.13;;;;;;;-148.88;100.00;77199.31;5075538;28;19920;-78
2023/04/02 05:23:52;;;;;;;4.03;1.15;;;;;;;-148.88;100.00;77199.31;5072186;28;20024;-77
2023/04/02 05:26:28;;;;;;;6.13;1.45;;;;;;;-148.88;100.00;77219.66;5072905;28;20077;-77
2023/04/02 05:29:06;;;;;;;3.00;1.38;;;;;;;-148.88;100.00;77203.41;5072651;28;20111;-77
2023/04/02 05:31:41;;;;;;;4.78;1.30;;;;;;;-148.88;100.00;77223.72;5055312;28;20024;-76
2023/04/02 05:34:07;;;;;;;3.75;1.40;;;;;;;-148.88;100.00;77235.91;5072751;28;20028;-78
2023/04/02 05:36:33;;;;;;;3.13;1.55;;;;;;;-148.88;100.00;77201.34;5072654;28;20035;-78
2023/04/02 05:38:59;;;;;;;3.22;1.30;;;;;;;-148.88;100.00;77183.06;5074789;28;20016;-78
2023/04/02 05:41:40;;;;;;;6.43;1.48;;;;;;;-148.88;100.00;77231.84;5076160;28;20036;-78
2023/04/02 05:44:17;;;;;;;5.50;1.15;;;;;;;-148.88;100.00;77248.09;5075800;28;20029;-78
2023/04/02 05:46:48;;;;;;;4.00;1.52;;;;;;;-148.88;100.00;77260.28;5074748;28;20025;-78
2023/04/02 05:49:34;;;;;;;3.72;1.17;;;;;;;-148.88;100.00;77282.63;5075220;28;20487;-78
2023/04/02 05:52:02;;;;;;;4.65;1.23;;;;;;;-148.88;100.00;77266.38;5074140;28;20028;-79
2023/04/02 05:54:31;;;;;;;4.18;1.70;;;;;;;-148.88;100.00;77223.72;5074748;28;20032;-78
2023/04/02 05:57:06;;;;;;;3.78;1.40;;;;;;;-148.88;100.00;77264.34;5075407;28;20025;-77
2023/04/02 05:59:42;;;;;;;5.20;1.48;;;;;;;-148.88;100.00;77250.13;5075058;28;20017;-78
2023/04/02 06:02:29;;;;;;;3.08;1.63;;;;;;;-148.88;100.00;77272.47;5073014;28;20044;-78
2023/04/02 06:05:16;;;;;;;6.30;1.60;;;;;;;-148.88;100.00;77262.31;5073006;28;20084;-78
2023/04/02 06:07:50;;;;;;;4.20;1.40;;;;;;;-148.88;100.00;77258.25;5073844;28;20032;-78
2023/04/02 06:10:31;;;;;;;2.90;1.33;;;;;;;-148.88;99.82;77264.34;5073876;28;20401;-78
2023/04/02 06:13:02;;;;;;;3.45;1.35;;;;;;;-148.88;99.42;77276.53;5074304;28;20363;-78
2023/04/02 06:15:29;;;;;;;3.85;1.25;;;;;;;-148.88;98.82;77284.66;5073582;28;20039;-78
2023/04/02 06:18:08;;;;;;;3.90;1.10;;;;;;;-148.88;98.21;77288.72;5072691;28;20210;-78
2023/04/02 06:20:33;;;;;;;4.05;1.45;;;;;;;-148.88;98.24;77282.63;5073887;28;20059;-78
2023/04/02 06:23:17;;;;;;;4.55;1.38;;;;;;;-148.88;97.90;77284.66;5072694;28;20367;-78
2023/04/02 06:26:03;;;;;;;6.10;1.65;;;;;;;-148.88;97.22;77278.56;5072944;28;20036;-78
2023/04/02 06:28:45;;;;;;;2.70;1.00;;;;;;;-148.88;99.66;77313.13;5055848;28;20024;-78
2023/04/02 06:31:27;;;;;;;4.22;1.05;;;;;;;-148.88;99.67;77327.34;5073865;28;20099;-78
2023/04/02 06:33:55;;;;;;;5.57;1.38;;;;;;;-148.88;99.84;77341.56;5073826;28;20036;-78
2023/04/02 06:36:22;;;;;;;3.63;1.33;;;;;;;-148.88;99.16;77341.56;5077689;28;20048;-78
2023/04/02 06:38:49;;;;;;;3.20;1.20;;;;;;;-148.88;98.14;77337.50;5076671;28;20082;-77
2023/04/02 06:41:23;;;;;;;3.10;1.23;;;;;;;-148.88;96.71;77335.47;5077496;28;20193;-78
2023/04/02 06:44:06;;;;;;;5.22;1.20;;;;;;;-148.88;96.71;77343.59;5075328;28;20021;-78
2023/04/02 06:46:38;;;;;;;2.33;1.07;;;;;;;-148.88;96.64;77337.50;5077949;28;20107;-78
2023/04/02 06:49:29;;;;;;;4.65;1.30;;;;;;;-148.88;97.32;77333.44;5076228;28;20066;-78
2023/04/02 06:51:57;;;;;;;2.67;1.08;;;;;;;-148.88;96.66;77337.50;5037770;28;20035;-78
2023/04/02 06:54:22;;;;;;;6.22;1.50;;;;;;;-148.88;95.54;77351.72;5077432;28;20024;-78
2023/04/02 06:56:55;;;;;;;4.93;1.50;;;;;;;-148.88;96.66;77374.09;5076636;28;20054;-78
2023/04/02 06:59:20;;;;;;;3.70;1.13;;;;;;;-148.88;95.91;77370.00;5076505;28;20016;-78
2023/04/02 07:01:53;;;;;;;2.13;1.00;;;;;;;-148.88;96.53;77353.75;5057934;28;20025;-78
2023/04/02 07:04:19;;;;;;;6.23;1.20;;;;;;;-148.88;96.80;77382.22;5077294;28;20056;-78
2023/04/02 07:06:45;;;;;;;2.15;0.90;;;;;;;-148.88;97.29;77382.22;5075520;28;20029;-78
2023/04/02 07:09:11;;;;;;;4.88;1.27;;;;;;;-148.88;96.61;77378.16;5077258;28;20117;-78
2023/04/02 07:11:36;;;;;;;6.43;1.77;;;;;;;-148.88;95.13;77378.16;5058237;28;20024;-78
2023/04/02 07:14:01;;;;;;;2.03;1.00;;;;;;;-148.88;94.42;77378.16;5074159;28;20111;-77
2023/04/02 07:16:29;;;;;;;2.13;0.90;;;;;;;-148.88;94.17;77386.28;5073594;28;20032;-77
2023/04/02 07:18:57;;;;;;;4.45;1.00;;;;;;;-148.88;94.02;77382.22;5074800;28;20020;-77
2023/04/02 07:21:23;;;;;;;3.10;1.52;;;;;;;-148.88;94.96;77374.09;5057294;28;20145;-77
2023/04/02 07:23:48;;;;;;;3.85;0.93;;;;;;;-148.88;93.77;77374.09;5075557;28;20064;-77
2023/04/02 07:26:16;;;;;;;3.95;0.93;;;;;;;-148.88;93.55;77386.28;5075383;28;20108;-77
2023/04/02 07:28:41;;;;;;;3.95;1.30;;;;;;;-148.88;91.83;77398.47;5076233;28;20486;-78
2023/04/02 07:31:18;;;;;;;4.78;0.90;;;;;;;-148.88;91.53;77394.41;5076782;28;20024;-78
2023/04/02 07:33:44;;;;;;;3.83;1.33;;;;;;;-148.88;90.53;77384.25;5075389;28;20025;-78
2023/04/02 07:36:19;;;;;;;5.50;1.25;;;;;;;-148.88;92.78;77398.47;5076158;28;20021;-78
2023/04/02 07:38:45;;;;;;;3.47;1.15;;;;;;;-148.88;93.38;77400.50;5057850;28;20024;-78
2023/04/02 07:41:11;;;;;;;1.83;1.10;;;;;;;-148.88;93.97;77396.44;5073609;28;20032;-77
2023/04/02 07:43:36;;;;;;;4.60;1.05;;;;;;;-148.88;92.67;77394.41;5074699;28;20499;-77
2023/04/02 07:46:02;;;;;;;2.25;0.98;;;;;;;-148.88;93.82;77390.34;5074173;28;20099;-77
2023/04/02 07:48:28;;;;;;;3.42;1.00;;;;;;;-148.88;94.82;77392.38;5074924;28;20475;-77
2023/04/02 07:50:53;;;;;;;4.60;1.40;;;;;;;-148.88;94.63;77382.22;5074914;28;20107;-76
2023/04/02 07:53:30;;;;;;;5.45;1.80;;;;;;;-148.88;92.20;77404.56;5074383;28;20482;-77
2023/04/02 07:55:58;;;;;;;2.75;1.20;;;;;;;-148.88;92.68;77410.66;5074333;28;20032;-76
2023/04/02 07:58:23;;;;;;;6.35;2.30;;;;;;;-148.88;91.87;77416.75;5075138;28;20387;-77
2023/04/02 08:00:49;;;;;;;3.15;0.77;;;;;;;-148.88;93.42;77414.72;5074893;28;20028;-77
2023/04/02 08:03:16;;;;;;;2.38;0.95;;;;;;;-148.88;93.53;77443.16;5075047;28;20135;-77
2023/04/02 08:05:41;;;;;;;6.35;1.58;;;;;;;-148.88;93.05;77445.19;5073381;28;20513;-77
2023/04/02 08:08:06;;;;;;;6.15;1.67;;;;;;;-148.88;93.43;77447.22;5074693;28;20020;-77
2023/04/02 08:10:32;;;;;;;4.22;1.17;;;;;;;-148.88;94.05;77435.03;5075174;28;20020;-76
2023/04/02 08:12:57;;;;;;;2.15;1.00;;;;;;;-148.88;92.90;77437.06;5073512;28;20547;-77
2023/04/02 08:15:22;;;;;;;2.78;0.90;;;;;;;-148.88;92.83;77435.03;5074140;28;20111;-77
2023/04/02 08:17:48;;;;;;;2.97;0.90;;;;;;;-148.88;93.73;77418.78;5074945;28;20111;-77
2023/04/02 08:20:16;;;;;;;4.00;1.45;;;;;;;-148.88;93.62;77426.91;5074633;28;20025;-77
2023/04/02 08:22:43;;;;;;;2.83;1.40;;;;;;;-148.88;93.02;77428.94;5073142;28;20085;-76
2023/04/02 08:25:09;;;;;;;2.50;1.23;;;;;;;-148.88;94.11;77418.78;5074397;28;20021;-77
2023/04/02 08:27:35;;;;;;;3.25;1.23;;;;;;;-148.88;93.17;77418.78;5075174;28;20032;-75
2023/04/02 08:30:00;;;;;;;5.57;1.23;;;;;;;-148.88;91.48;77418.78;5075547;28;20025;-76
2023/04/02 08:32:27;;;;;;;3.05;1.00;;;;;;;-148.88;92.69;77414.72;5076484;28;20082;-77
2023/04/02 08:34:53;;;;;;;4.00;1.02;;;;;;;-148.88;92.87;77398.47;5080428;28;20021;-77
2023/04/02 08:37:18;;;;;;;2.55;1.10;;;;;;;-148.88;92.34;77392.38;5081259;28;20032;-77
2023/04/02 08:39:46;;;;;;;4.57;1.00;;;;;;;-148.88;90.83;77394.41;5073943;28;20037;-77
2023/04/02 08:43:01;;;;;;;2.05;0.95;;;;;;;-148.88;89.94;77396.44;5055601;28;20026;-77
2023/04/02 08:45:40;;;;;;;3.55;1.35;;;;;;;-148.88;90.31;77394.41;5036880;28;20029;-77
2023/04/02 08:48:09;;;;;;;4.53;1.10;;;;;;;-148.88;89.85;77416.75;5074193;28;20024;-77
2023/04/02 08:50:38;;;;;;;2.75;1.10;;;;;;;-148.88;89.46;77406.59;5073749;28;20021;-77
2023/04/02 08:53:11;;;;;;;6.57;1.60;;;;;;;-148.88;87.79;77406.59;5073569;28;20017;-77
2023/04/02 08:55:46;;;;;;;5.03;1.63;;;;;;;-148.88;89.13;77382.22;5073648;28;20020;-77
2023/04/02 08:58:33;;;;;;;3.47;1.17;;;;;;;-148.88;88.33;77386.28;5071383;28;20123;-77
2023/04/02 09:01:02;;;;;;;5.97;1.70;;;;;;;-148.88;87.24;77370.00;5073497;28;20111;-77
2023/04/02 09:03:44;;;;;;;2.50;0.93;;;;;;;-148.88;89.41;77363.91;5072874;28;20499;-77
2023/04/02 09:06:14;;;;;;;2.85;1.02;;;;;;;-148.88;87.38;77370.00;5074496;28;20020;-77
2023/04/02 09:08:42;;;;;;;2.45;1.05;;;;;;;-148.88;83.97;77374.09;5074742;28;20023;-76
2023/04/02 09:11:34;;;;;;;3.75;0.88;;;;;;;-148.88;84.31;77353.75;5073831;28;20028;-77
2023/04/02 09:14:05;;;;;;;4.65;1.10;;;;;;;-148.88;85.73;77339.53;5072927;28;20036;-77
2023/04/02 09:16:54;;;;;;;4.07;1.15;;;;;;;-148.88;83.28;77351.72;5073867;28;20039;-77
2023/04/02 09:19:30;;;;;;;4.32;1.13;;;;;;;-148.88;82.13;77357.81;5055985;28;20032;-77
2023/04/02 09:22:15;;;;;;;4.68;1.63;;;;;;;-148.88;83.60;77353.75;5073760;28;20089;-77
2023/04/02 09:24:40;;;;;;;3.90;1.17;;;;;;;-148.88;84.82;77353.75;5073263;28;20433;-77
2023/04/02 09:27:17;;;;;;;2.28;1.00;;;;;;;-148.88;84.92;77357.81;5072998;28;20427;-77
2023/04/02 09:29:45;;;;;;;3.10;1.13;;;;;;;-148.88;85.09;77345.63;5073825;28;20017;-77
2023/04/02 09:32:38;;;;;;;5.75;2.17;;;;;;;-148.88;87.12;77327.34;5055223;28;20017;-76
2023/04/02 09:35:19;;;;;;;3.80;1.47;;;;;;;-148.88;85.03;77329.38;5072998;28;20039;-77
2023/04/02 09:37:45;;;;;;;8.23;1.50;;;;;;;-148.88;85.06;77331.41;5072693;28;20470;-77
2023/04/02 09:40:25;;;;;;;2.88;1.15;;;;;;;-148.88;85.12;77329.38;5055258;28;20056;-76
2023/04/02 09:43:10;;;;;;;2.50;1.05;;;;;;;-148.88;82.29;77337.50;5071929;28;20130;-77
2023/04/02 09:45:36;;;;;;;3.03;1.38;;;;;;;-148.88;85.05;77339.53;5055124;28;20062;-77
2023/04/02 09:48:20;;;;;;;3.90;1.25;;;;;;;-148.88;84.26;77329.38;5073704;28;20020;-77
2023/04/02 09:50:45;;;;;;;2.92;1.10;;;;;;;-148.88;83.51;77329.38;5055067;28;20031;-77
2023/04/02 09:53:33;;;;;;;4.38;1.25;;;;;;;-148.88;81.21;77327.34;5073121;28;20394;-77
2023/04/02 09:56:16;;;;;;;3.10;1.05;;;;;;;-148.88;81.21;77327.34;5073497;28;20074;-77
2023/04/02 09:58:43;;;;;;;3.93;1.47;;;;;;;-148.88;83.51;77315.16;5071809;28;20021;-77
2023/04/02 10:01:32;;;;;;;3.30;0.95;;;;;;;-148.88;82.76;77325.31;5055143;28;20027;-77
2023/04/02 10:04:00;;;;;;;5.70;1.85;;;;;;;-148.88;85.27;77309.06;5055995;28;20016;-77
2023/04/02 10:06:27;;;;;;;3.53;1.10;;;;;;;-148.88;82.41;77329.38;5079325;28;20401;-77
2023/04/02 10:08:53;;;;;;;3.53;1.17;;;;;;;-148.88;81.30;77305.00;5075882;28;20016;-77
2023/04/02 10:11:34;;;;;;;2.65;1.17;;;;;;;-148.88;81.07;77321.25;5078961;28;20479;-77
2023/04/02 10:14:03;;;;;;;2.92;1.10;;;;;;;-148.88;81.86;77321.25;5075325;28;20025;-77
2023/04/02 10:16:38;;;;;;;2.83;1.02;;;;;;;-148.88;81.36;77329.38;5077403;28;20103;-77
2023/04/02 10:19:21;;;;;;;3.28;1.20;;;;;;;-148.88;81.19;77317.19;5078880;28;20033;-77
2023/04/02 10:21:51;;;;;;;8.82;1.20;;;;;;;-148.88;81.04;77313.13;5076432;28;20032;-77
2023/04/02 10:24:17;;;;;;;4.65;1.08;;;;;;;-148.88;81.79;77315.16;5075841;28;20064;-77
2023/04/02 10:26:52;;;;;;;9.38;1.20;;;;;;;-148.88;83.06;77311.09;5076893;28;20025;-77
2023/04/02 10:29:44;;;;;;;1.75;0.80;;;;;;;-148.88;82.28;77300.94;5074674;28;20479;-77
2023/04/02 10:32:16;;;;;;;1.98;1.23;;;;;;;-148.88;83.07;77302.97;5076094;28;20550;-77
2023/04/02 10:35:07;;;;;;;2.05;0.65;;;;;;;-148.88;82.68;77296.88;5074845;28;20028;-77
2023/04/02 10:37:42;;;;;;;3.22;1.02;;;;;;;-148.88;83.90;77272.47;5076519;28;20104;-77
2023/04/02 10:40:25;;;;;;;2.38;0.85;;;;;;;-148.88;82.63;77284.66;5076161;28;20029;-76
2023/04/02 10:43:17;;;;;;;2.88;1.10;;;;;;;-148.88;81.53;77280.59;5076516;28;20135;-78
2023/04/02 10:46:23;;;;;;;2.05;0.70;;;;;;;-148.88;82.12;77280.59;5075865;28;20025;-78
2023/04/02 10:49:12;;;;;;;3.78;0.90;;;;;;;-148.88;80.72;77252.16;5075434;28;20385;-80
2023/04/02 10:52:05;;;;;;;3.25;1.25;;;;;;;-148.88;79.70;77272.47;5075210;28;20098;-77
2023/04/02 10:55:13;;;;;;;2.50;0.90;;;;;;;-148.88;80.33;77290.75;5117188;22;20449;-78
2023/04/02 10:57:40;;;;;;;4.20;1.75;;;;;;;-148.88;80.40;77292.81;5019715;28;20049;-79
2023/04/02 11:00:26;;;;;;;3.25;0.90;;;;;;;-148.88;80.68;77284.66;5017955;28;20036;-79
2023/04/02 11:03:04;;;;;;;5.90;1.52;;;;;;;-148.88;79.30;77272.47;5017057;28;20032;-79
2023/04/02 11:05:45;;;;;;;2.70;1.23;;;;;;;-148.88;79.29;77278.56;5019014;28;20026;-78
2023/04/02 11:08:22;;;;;;;2.97;1.10;;;;;;;-148.88;77.88;77282.63;5017499;28;20033;-79
2023/04/02 11:11:17;;;;;;;4.70;0.98;;;;;;;-148.88;78.39;77292.81;5017657;28;20030;-79
2023/04/02 11:13:47;;;;;;;2.17;0.82;;;;;;;-148.88;78.82;77268.41;5015754;28;20038;-79
2023/04/02 11:16:15;;;;;;;2.03;1.10;;;;;;;-148.88;78.23;77260.28;5017840;28;20022;-80
2023/04/02 11:18:41;;;;;;;4.55;1.20;;;;;;;-148.88;77.45;77244.03;5019350;28;20032;-79
2023/04/02 11:21:07;;;;;;;2.30;0.88;;;;;;;-148.88;75.45;77276.53;5022956;28;20093;-79
2023/04/02 11:23:55;;;;;;;2.50;0.93;;;;;;;-148.88;75.69;77286.69;5019527;28;20368;-79
2023/04/02 11:26:31;;;;;;;3.00;1.15;;;;;;;-148.88;78.41;77248.09;5016718;28;20033;-79
2023/04/02 11:29:03;;;;;;;9.52;0.93;;;;;;;-148.88;77.83;77215.59;5017124;28;20030;-78
2023/04/02 11:31:29;;;;;;;4.30;1.48;;;;;;;-148.88;75.60;77199.31;5050063;28;20018;-78
2023/04/02 11:33:54;;;;;;;2.75;1.10;;;;;;;-148.88;74.06;77132.28;5018365;28;20032;-77
2023/04/02 11:37:10;;;;;;;2.35;1.15;;;;;;;-148.88;71.73;77040.84;5016795;28;20038;-81
2023/04/02 11:39:54;;;;;;;1.35;0.80;;;;;;;-148.88;70.06;77044.91;4995441;28;20064;-80
2023/04/02 11:42:23;;;;;;;2.50;1.50;;;;;;;-148.88;67.83;77142.44;5016442;28;20044;-79
2023/04/02 11:44:49;;;;;;;1.92;0.90;;;;;;;-148.88;69.95;77174.94;5016738;28;20057;-80
2023/04/02 11:47:18;;;;;;;2.80;1.02;;;;;;;-148.88;72.13;77174.94;5017113;28;20391;-79